SKQ55 KBWI-KBUY
Flight info
| Callsign | SKQ55 |
|---|---|
| Flight time | 1h 1m |
| Altitude | 20000 |
| Route | GRACO T295 TAPPA T224 WAVES |
| Aircraft | PC12/L-SDFGRWY/S |
Departure
| Time | 2026-04-22 03:40 |
|---|---|
| Airport | Baltimore/Washington International Thurgood Marshall Airport (KBWI) |
Arrival
| Time | 2026-04-22 04:41 |
|---|---|
| Airport | Burlington Alamance Regional Airport (KBUY) |
| Time | Latitude | Longitude | Altitude | Speed | Heading |
|---|---|---|---|---|---|
| 2026-04-22 03:08 | 39.18448 | -76.65711 | 136 ft | 0 kts | 328° |
| 2026-04-22 03:35 | 39.18449 | -76.65712 | 136 ft | 1 kts | 327° |
| 2026-04-22 03:35 | 39.18459 | -76.65723 | 136 ft | 1 kts | 302° |
| 2026-04-22 03:35 | 39.18452 | -76.65750 | 136 ft | 7 kts | 264° |
| 2026-04-22 03:35 | 39.18500 | -76.65808 | 136 ft | 12 kts | 324° |
| 2026-04-22 03:36 | 39.18529 | -76.65896 | 137 ft | 6 kts | 235° |
| 2026-04-22 03:36 | 39.18500 | -76.65947 | 136 ft | 0 kts | 234° |
| 2026-04-22 03:37 | 39.18500 | -76.65948 | 136 ft | 1 kts | 234° |
| 2026-04-22 03:37 | 39.18488 | -76.65978 | 136 ft | 7 kts | 272° |
| 2026-04-22 03:37 | 39.18531 | -76.66032 | 138 ft | 10 kts | 324° |
| 2026-04-22 03:37 | 39.18597 | -76.66093 | 140 ft | 13 kts | 324° |
| 2026-04-22 03:38 | 39.18678 | -76.66168 | 142 ft | 15 kts | 324° |
| 2026-04-22 03:38 | 39.18764 | -76.66248 | 144 ft | 7 kts | 324° |
| 2026-04-22 03:38 | 39.18774 | -76.66268 | 145 ft | 1 kts | 260° |
| 2026-04-22 03:38 | 39.18773 | -76.66275 | 145 ft | 0 kts | 257° |
| 2026-04-22 03:39 | 39.18762 | -76.66298 | 146 ft | 9 kts | 234° |
| 2026-04-22 03:39 | 39.18662 | -76.66284 | 146 ft | 28 kts | 144° |
| 2026-04-22 03:39 | 39.18375 | -76.66024 | 132 ft | 73 kts | 144° |
| 2026-04-22 03:39 | 39.17881 | -76.65542 | 154 ft | 100 kts | 144° |
| 2026-04-22 03:40 | 39.17280 | -76.65035 | 389 ft | 104 kts | 149° |
| 2026-04-22 03:40 | 39.16701 | -76.64562 | 819 ft | 90 kts | 154° |
| 2026-04-22 03:40 | 39.16198 | -76.64124 | 1190 ft | 87 kts | 153° |
| 2026-04-22 03:40 | 39.15726 | -76.63609 | 1480 ft | 88 kts | 155° |
| 2026-04-22 03:41 | 39.15203 | -76.63229 | 1727 ft | 91 kts | 176° |
| 2026-04-22 03:41 | 39.14552 | -76.63308 | 1983 ft | 100 kts | 205° |
| 2026-04-22 03:41 | 39.13949 | -76.63769 | 2448 ft | 101 kts | 219° |
| 2026-04-22 03:41 | 39.13465 | -76.64391 | 2998 ft | 97 kts | 230° |
| 2026-04-22 03:42 | 39.13101 | -76.65152 | 3426 ft | 104 kts | 241° |
| 2026-04-22 03:42 | 39.12855 | -76.65985 | 3989 ft | 99 kts | 250° |
| 2026-04-22 03:42 | 39.12711 | -76.66897 | 4398 ft | 107 kts | 264° |
| 2026-04-22 03:42 | 39.12824 | -76.67877 | 4826 ft | 117 kts | 286° |
| 2026-04-22 03:43 | 39.13260 | -76.68813 | 5263 ft | 126 kts | 304° |
| 2026-04-22 03:43 | 39.13893 | -76.69551 | 5897 ft | 118 kts | 314° |
| 2026-04-22 03:43 | 39.14525 | -76.70189 | 6453 ft | 115 kts | 314° |
| 2026-04-22 03:43 | 39.15143 | -76.70822 | 6955 ft | 113 kts | 314° |
| 2026-04-22 03:44 | 39.15755 | -76.71463 | 7428 ft | 114 kts | 314° |
| 2026-04-22 03:44 | 39.16341 | -76.72140 | 7924 ft | 113 kts | 311° |
| 2026-04-22 03:44 | 39.16796 | -76.72927 | 8423 ft | 110 kts | 280° |
| 2026-04-22 03:44 | 39.16563 | -76.73911 | 8882 ft | 124 kts | 250° |
| 2026-04-22 03:45 | 39.16010 | -76.74809 | 9362 ft | 132 kts | 239° |
| 2026-04-22 03:45 | 39.15215 | -76.75509 | 9857 ft | 149 kts | 216° |
| 2026-04-22 03:45 | 39.14231 | -76.75986 | 10332 ft | 153 kts | 214° |
| 2026-04-22 03:45 | 39.13242 | -76.76461 | 10783 ft | 154 kts | 216° |
| 2026-04-22 03:46 | 39.12248 | -76.76973 | 11255 ft | 155 kts | 216° |
| 2026-04-22 03:46 | 39.11243 | -76.77493 | 11719 ft | 156 kts | 216° |
| 2026-04-22 03:46 | 39.10230 | -76.78018 | 12192 ft | 158 kts | 216° |
| 2026-04-22 03:46 | 39.09208 | -76.78549 | 12660 ft | 159 kts | 216° |
| 2026-04-22 03:47 | 39.08175 | -76.79088 | 13145 ft | 161 kts | 216° |
| 2026-04-22 03:47 | 39.07135 | -76.79630 | 13667 ft | 162 kts | 216° |
| 2026-04-22 03:47 | 39.06086 | -76.80177 | 14202 ft | 163 kts | 216° |
| 2026-04-22 03:47 | 39.05027 | -76.80732 | 14674 ft | 165 kts | 216° |
| 2026-04-22 03:48 | 39.03967 | -76.81304 | 15157 ft | 166 kts | 216° |
| 2026-04-22 03:48 | 39.02902 | -76.81885 | 15651 ft | 166 kts | 216° |
| 2026-04-22 03:48 | 39.01834 | -76.82468 | 16156 ft | 167 kts | 216° |
| 2026-04-22 03:48 | 39.00764 | -76.83054 | 16663 ft | 167 kts | 216° |
| 2026-04-22 03:49 | 38.99680 | -76.83655 | 17013 ft | 179 kts | 216° |
| 2026-04-22 03:49 | 38.98461 | -76.84384 | 17024 ft | 205 kts | 216° |
| 2026-04-22 03:49 | 38.97117 | -76.85235 | 17028 ft | 225 kts | 216° |
| 2026-04-22 03:49 | 38.95684 | -76.86171 | 17222 ft | 231 kts | 216° |
| 2026-04-22 03:50 | 38.94254 | -76.87107 | 17597 ft | 230 kts | 216° |
| 2026-04-22 03:50 | 38.92837 | -76.88042 | 17986 ft | 229 kts | 216° |
| 2026-04-22 03:50 | 38.91417 | -76.88982 | 18317 ft | 230 kts | 216° |
| 2026-04-22 03:50 | 38.89989 | -76.89930 | 18629 ft | 231 kts | 216° |
| 2026-04-22 03:51 | 38.88556 | -76.90880 | 18909 ft | 232 kts | 216° |
| 2026-04-22 03:51 | 38.87102 | -76.91846 | 19178 ft | 233 kts | 216° |
| 2026-04-22 03:51 | 38.85678 | -76.92794 | 19446 ft | 234 kts | 216° |
| 2026-04-22 03:51 | 38.84233 | -76.93757 | 19698 ft | 235 kts | 216° |
| 2026-04-22 03:52 | 38.82786 | -76.94729 | 19970 ft | 235 kts | 216° |
| 2026-04-22 03:52 | 38.81307 | -76.95739 | 19995 ft | 246 kts | 216° |
| 2026-04-22 03:52 | 38.79772 | -76.96802 | 19997 ft | 255 kts | 216° |
| 2026-04-22 03:52 | 38.78195 | -76.97907 | 20001 ft | 261 kts | 216° |
| 2026-04-22 03:53 | 38.76587 | -76.99042 | 20000 ft | 266 kts | 216° |
| 2026-04-22 03:53 | 38.74954 | -77.00201 | 20001 ft | 270 kts | 216° |
| 2026-04-22 03:53 | 38.73305 | -77.01376 | 20001 ft | 272 kts | 216° |
| 2026-04-22 03:53 | 38.71646 | -77.02561 | 19977 ft | 274 kts | 216° |
| 2026-04-22 03:54 | 38.69975 | -77.03758 | 19975 ft | 275 kts | 216° |
| 2026-04-22 03:54 | 38.68303 | -77.04957 | 19975 ft | 276 kts | 216° |
| 2026-04-22 03:54 | 38.66627 | -77.06161 | 20004 ft | 277 kts | 216° |
| 2026-04-22 03:54 | 38.64945 | -77.07370 | 20006 ft | 277 kts | 216° |
| 2026-04-22 03:55 | 38.63261 | -77.08582 | 19986 ft | 278 kts | 216° |
| 2026-04-22 03:55 | 38.61576 | -77.09799 | 20002 ft | 278 kts | 216° |
| 2026-04-22 03:55 | 38.59894 | -77.11021 | 19990 ft | 278 kts | 216° |
| 2026-04-22 03:55 | 38.58215 | -77.12242 | 19992 ft | 278 kts | 216° |
| 2026-04-22 03:56 | 38.56529 | -77.13467 | 19989 ft | 278 kts | 216° |
| 2026-04-22 03:56 | 38.54850 | -77.14689 | 19991 ft | 278 kts | 216° |
| 2026-04-22 03:56 | 38.53171 | -77.15910 | 19990 ft | 277 kts | 216° |
| 2026-04-22 03:56 | 38.51496 | -77.17128 | 19994 ft | 277 kts | 217° |
| 2026-04-22 03:57 | 38.49823 | -77.18344 | 19997 ft | 277 kts | 217° |
| 2026-04-22 03:57 | 38.48152 | -77.19558 | 19991 ft | 276 kts | 217° |
| 2026-04-22 03:57 | 38.46482 | -77.20771 | 19998 ft | 276 kts | 217° |
| 2026-04-22 03:57 | 38.44810 | -77.21986 | 19991 ft | 277 kts | 217° |
| 2026-04-22 03:58 | 38.43158 | -77.23188 | 19991 ft | 277 kts | 216° |
| 2026-04-22 03:58 | 38.41492 | -77.24409 | 19994 ft | 276 kts | 216° |
| 2026-04-22 03:58 | 38.39836 | -77.25644 | 19994 ft | 276 kts | 216° |
| 2026-04-22 03:58 | 38.38170 | -77.26916 | 20005 ft | 275 kts | 218° |
| 2026-04-22 03:59 | 38.36564 | -77.28199 | 20130 ft | 270 kts | 218° |
| 2026-04-22 03:59 | 38.35004 | -77.29459 | 20215 ft | 268 kts | 218° |
| 2026-04-22 03:59 | 38.33404 | -77.30753 | 20227 ft | 270 kts | 218° |
| 2026-04-22 03:59 | 38.31833 | -77.32027 | 20225 ft | 272 kts | 218° |
| 2026-04-22 04:00 | 38.30236 | -77.33325 | 20221 ft | 273 kts | 218° |
| 2026-04-22 04:00 | 38.28633 | -77.34625 | 20221 ft | 274 kts | 218° |
| 2026-04-22 04:00 | 38.27026 | -77.35930 | 20221 ft | 274 kts | 218° |
| 2026-04-22 04:00 | 38.25414 | -77.37239 | 20221 ft | 275 kts | 218° |
| 2026-04-22 04:01 | 38.23802 | -77.38549 | 20224 ft | 275 kts | 218° |
| 2026-04-22 04:01 | 38.22192 | -77.39860 | 20225 ft | 275 kts | 218° |
| 2026-04-22 04:01 | 38.20579 | -77.41174 | 20222 ft | 275 kts | 218° |
| 2026-04-22 04:01 | 38.18967 | -77.42493 | 20223 ft | 276 kts | 218° |
| 2026-04-22 04:02 | 38.17357 | -77.43812 | 20223 ft | 276 kts | 218° |
| 2026-04-22 04:02 | 38.15738 | -77.45139 | 20216 ft | 276 kts | 218° |
| 2026-04-22 04:02 | 38.14122 | -77.46466 | 20218 ft | 277 kts | 218° |
| 2026-04-22 04:02 | 38.12506 | -77.47793 | 20220 ft | 277 kts | 218° |
| 2026-04-22 04:03 | 38.10890 | -77.49133 | 20221 ft | 276 kts | 219° |
| 2026-04-22 04:03 | 38.09320 | -77.50529 | 20222 ft | 275 kts | 221° |
| 2026-04-22 04:03 | 38.07782 | -77.51974 | 20222 ft | 275 kts | 222° |
| 2026-04-22 04:03 | 38.06257 | -77.53427 | 20223 ft | 275 kts | 222° |
| 2026-04-22 04:04 | 38.04731 | -77.54885 | 20226 ft | 274 kts | 222° |
| 2026-04-22 04:04 | 38.03202 | -77.56344 | 20227 ft | 274 kts | 222° |
| 2026-04-22 04:04 | 38.01679 | -77.57800 | 20229 ft | 274 kts | 222° |
| 2026-04-22 04:04 | 38.00154 | -77.59257 | 20227 ft | 274 kts | 222° |
| 2026-04-22 04:05 | 37.98634 | -77.60717 | 20234 ft | 273 kts | 222° |
| 2026-04-22 04:05 | 37.97126 | -77.62179 | 20236 ft | 273 kts | 223° |
| 2026-04-22 04:05 | 37.95620 | -77.63642 | 20243 ft | 273 kts | 223° |
| 2026-04-22 04:05 | 37.94113 | -77.65106 | 20244 ft | 273 kts | 223° |
| 2026-04-22 04:06 | 37.92609 | -77.66567 | 20237 ft | 273 kts | 223° |
| 2026-04-22 04:06 | 37.91102 | -77.68031 | 20237 ft | 273 kts | 223° |
| 2026-04-22 04:06 | 37.89595 | -77.69497 | 20238 ft | 273 kts | 223° |
| 2026-04-22 04:06 | 37.88092 | -77.70957 | 20237 ft | 273 kts | 223° |
| 2026-04-22 04:07 | 37.86585 | -77.72422 | 20237 ft | 273 kts | 223° |
| 2026-04-22 04:07 | 37.85080 | -77.73885 | 20237 ft | 273 kts | 223° |
| 2026-04-22 04:07 | 37.83574 | -77.75350 | 20237 ft | 273 kts | 223° |
| 2026-04-22 04:07 | 37.82068 | -77.76817 | 20243 ft | 273 kts | 223° |
| 2026-04-22 04:08 | 37.80564 | -77.78281 | 20242 ft | 273 kts | 223° |
| 2026-04-22 04:08 | 37.79060 | -77.79745 | 20242 ft | 273 kts | 223° |
| 2026-04-22 04:08 | 37.77552 | -77.81213 | 20237 ft | 273 kts | 223° |
| 2026-04-22 04:08 | 37.76049 | -77.82677 | 20231 ft | 273 kts | 223° |
| 2026-04-22 04:09 | 37.74547 | -77.84140 | 20241 ft | 273 kts | 223° |
| 2026-04-22 04:09 | 37.73042 | -77.85607 | 20242 ft | 273 kts | 223° |
| 2026-04-22 04:09 | 37.71539 | -77.87072 | 20242 ft | 273 kts | 223° |
| 2026-04-22 04:09 | 37.70037 | -77.88536 | 20242 ft | 273 kts | 223° |
| 2026-04-22 04:10 | 37.68535 | -77.90001 | 20240 ft | 273 kts | 223° |
| 2026-04-22 04:10 | 37.67031 | -77.91468 | 20239 ft | 273 kts | 223° |
| 2026-04-22 04:10 | 37.65529 | -77.92932 | 20242 ft | 273 kts | 223° |
| 2026-04-22 04:10 | 37.64030 | -77.94394 | 20242 ft | 273 kts | 223° |
| 2026-04-22 04:11 | 37.62527 | -77.95858 | 20225 ft | 273 kts | 223° |
| 2026-04-22 04:11 | 37.61030 | -77.97320 | 20231 ft | 272 kts | 223° |
| 2026-04-22 04:11 | 37.59532 | -77.98784 | 20231 ft | 272 kts | 223° |
| 2026-04-22 04:11 | 37.58037 | -78.00245 | 20231 ft | 272 kts | 223° |
| 2026-04-22 04:12 | 37.56540 | -78.01705 | 20235 ft | 272 kts | 223° |
| 2026-04-22 04:12 | 37.55041 | -78.03165 | 20235 ft | 272 kts | 223° |
| 2026-04-22 04:12 | 37.53542 | -78.04625 | 20234 ft | 273 kts | 223° |
| 2026-04-22 04:12 | 37.52042 | -78.06086 | 20234 ft | 273 kts | 223° |
| 2026-04-22 04:13 | 37.50537 | -78.07550 | 20233 ft | 273 kts | 223° |
| 2026-04-22 04:13 | 37.49035 | -78.09012 | 20233 ft | 273 kts | 223° |
| 2026-04-22 04:13 | 37.47530 | -78.10477 | 20229 ft | 273 kts | 223° |
| 2026-04-22 04:13 | 37.46026 | -78.11940 | 20227 ft | 273 kts | 223° |
| 2026-04-22 04:14 | 37.44542 | -78.13385 | 20227 ft | 273 kts | 223° |
| 2026-04-22 04:14 | 37.43019 | -78.14869 | 20226 ft | 273 kts | 223° |
| 2026-04-22 04:14 | 37.41518 | -78.16330 | 20226 ft | 273 kts | 223° |
| 2026-04-22 04:14 | 37.40036 | -78.17774 | 20227 ft | 273 kts | 223° |
| 2026-04-22 04:15 | 37.38536 | -78.19236 | 20229 ft | 273 kts | 223° |
| 2026-04-22 04:15 | 37.37034 | -78.20699 | 20229 ft | 273 kts | 223° |
| 2026-04-22 04:15 | 37.35530 | -78.22163 | 20226 ft | 274 kts | 223° |
| 2026-04-22 04:15 | 37.34512 | -78.23150 | 20226 ft | 274 kts | 223° |
| 2026-04-22 04:16 | 37.33003 | -78.24612 | 20224 ft | 274 kts | 223° |
| 2026-04-22 04:16 | 37.29979 | -78.27540 | 20225 ft | 275 kts | 223° |
| 2026-04-22 04:16 | 37.28467 | -78.29004 | 20225 ft | 275 kts | 223° |
| 2026-04-22 04:17 | 37.26952 | -78.30472 | 20224 ft | 275 kts | 223° |
| 2026-04-22 04:17 | 37.25440 | -78.31937 | 20237 ft | 275 kts | 223° |
| 2026-04-22 04:17 | 37.23926 | -78.33405 | 20237 ft | 275 kts | 223° |
| 2026-04-22 04:17 | 37.22415 | -78.34869 | 20242 ft | 275 kts | 223° |
| 2026-04-22 04:18 | 37.20922 | -78.36316 | 20242 ft | 275 kts | 223° |
| 2026-04-22 04:18 | 37.19389 | -78.37802 | 20242 ft | 275 kts | 223° |
| 2026-04-22 04:18 | 37.17877 | -78.39268 | 20242 ft | 275 kts | 223° |
| 2026-04-22 04:18 | 37.16364 | -78.40736 | 20242 ft | 275 kts | 223° |
| 2026-04-22 04:19 | 37.14850 | -78.42205 | 20242 ft | 275 kts | 223° |
| 2026-04-22 04:19 | 37.13338 | -78.43666 | 20246 ft | 275 kts | 223° |
| 2026-04-22 04:19 | 37.11819 | -78.45122 | 20247 ft | 275 kts | 223° |
| 2026-04-22 04:19 | 37.10301 | -78.46577 | 20249 ft | 275 kts | 223° |
| 2026-04-22 04:20 | 37.08783 | -78.48032 | 20251 ft | 275 kts | 223° |
| 2026-04-22 04:20 | 37.07259 | -78.49493 | 20252 ft | 275 kts | 223° |
| 2026-04-22 04:20 | 37.05734 | -78.50957 | 20069 ft | 281 kts | 223° |
| 2026-04-22 04:20 | 37.04176 | -78.52464 | 19736 ft | 283 kts | 223° |
| 2026-04-22 04:21 | 37.02624 | -78.53971 | 19400 ft | 282 kts | 223° |
| 2026-04-22 04:21 | 37.01103 | -78.55457 | 19073 ft | 281 kts | 223° |
| 2026-04-22 04:21 | 36.99567 | -78.56963 | 18745 ft | 279 kts | 223° |
| 2026-04-22 04:21 | 36.98047 | -78.58461 | 18385 ft | 278 kts | 223° |
| 2026-04-22 04:22 | 36.96537 | -78.59958 | 18023 ft | 276 kts | 223° |
| 2026-04-22 04:22 | 36.95034 | -78.61453 | 17646 ft | 275 kts | 223° |
| 2026-04-22 04:22 | 36.93543 | -78.62944 | 17278 ft | 274 kts | 223° |
| 2026-04-22 04:22 | 36.92061 | -78.64431 | 16904 ft | 273 kts | 223° |
| 2026-04-22 04:23 | 36.90579 | -78.65913 | 16543 ft | 272 kts | 223° |
| 2026-04-22 04:23 | 36.89105 | -78.67395 | 16181 ft | 272 kts | 223° |
| 2026-04-22 04:23 | 36.87638 | -78.68882 | 15841 ft | 271 kts | 223° |
| 2026-04-22 04:23 | 36.86188 | -78.70377 | 15491 ft | 270 kts | 223° |
| 2026-04-22 04:24 | 36.84750 | -78.71878 | 15147 ft | 269 kts | 223° |
| 2026-04-22 04:24 | 36.83328 | -78.73377 | 14804 ft | 267 kts | 223° |
| 2026-04-22 04:24 | 36.81912 | -78.74884 | 14472 ft | 267 kts | 223° |
| 2026-04-22 04:24 | 36.80505 | -78.76393 | 14142 ft | 266 kts | 223° |
| 2026-04-22 04:25 | 36.79106 | -78.77903 | 13820 ft | 265 kts | 223° |
| 2026-04-22 04:25 | 36.77715 | -78.79405 | 13476 ft | 265 kts | 224° |
| 2026-04-22 04:25 | 36.76319 | -78.80902 | 13137 ft | 264 kts | 224° |
| 2026-04-22 04:25 | 36.74926 | -78.82386 | 12801 ft | 263 kts | 224° |
| 2026-04-22 04:26 | 36.73531 | -78.83861 | 12463 ft | 263 kts | 224° |
| 2026-04-22 04:26 | 36.72131 | -78.85331 | 12132 ft | 263 kts | 224° |
| 2026-04-22 04:26 | 36.70728 | -78.86794 | 11798 ft | 263 kts | 224° |
| 2026-04-22 04:26 | 36.69322 | -78.88252 | 11477 ft | 263 kts | 224° |
| 2026-04-22 04:27 | 36.67914 | -78.89701 | 11161 ft | 263 kts | 224° |
| 2026-04-22 04:27 | 36.66501 | -78.91147 | 10850 ft | 263 kts | 224° |
| 2026-04-22 04:27 | 36.65084 | -78.92587 | 10534 ft | 262 kts | 224° |
| 2026-04-22 04:27 | 36.63670 | -78.94014 | 10226 ft | 262 kts | 224° |
| 2026-04-22 04:28 | 36.62250 | -78.95438 | 9898 ft | 262 kts | 224° |
| 2026-04-22 04:28 | 36.60834 | -78.96851 | 9562 ft | 261 kts | 224° |
| 2026-04-22 04:28 | 36.59420 | -78.98260 | 9224 ft | 260 kts | 224° |
| 2026-04-22 04:28 | 36.58011 | -78.99661 | 8885 ft | 259 kts | 224° |
| 2026-04-22 04:29 | 36.56608 | -79.01050 | 8554 ft | 257 kts | 224° |
| 2026-04-22 04:29 | 36.55212 | -79.02431 | 8247 ft | 255 kts | 224° |
| 2026-04-22 04:29 | 36.53828 | -79.03794 | 7927 ft | 253 kts | 224° |
| 2026-04-22 04:29 | 36.52449 | -79.05149 | 7610 ft | 252 kts | 224° |
| 2026-04-22 04:30 | 36.51075 | -79.06494 | 7291 ft | 250 kts | 224° |
| 2026-04-22 04:30 | 36.49710 | -79.07818 | 6983 ft | 248 kts | 224° |
| 2026-04-22 04:30 | 36.48353 | -79.09126 | 6660 ft | 246 kts | 224° |
| 2026-04-22 04:30 | 36.46979 | -79.10372 | 6331 ft | 246 kts | 214° |
| 2026-04-22 04:31 | 36.45375 | -79.11123 | 6141 ft | 244 kts | 202° |
| 2026-04-22 04:31 | 36.43750 | -79.11677 | 6025 ft | 240 kts | 201° |
| 2026-04-22 04:31 | 36.42150 | -79.12197 | 5897 ft | 236 kts | 200° |
| 2026-04-22 04:31 | 36.40568 | -79.12712 | 5773 ft | 233 kts | 202° |
| 2026-04-22 04:32 | 36.39035 | -79.13330 | 5647 ft | 230 kts | 205° |
| 2026-04-22 04:32 | 36.37530 | -79.13990 | 5525 ft | 229 kts | 205° |
| 2026-04-22 04:32 | 36.36036 | -79.14655 | 5402 ft | 228 kts | 205° |
| 2026-04-22 04:32 | 36.34548 | -79.15322 | 5280 ft | 226 kts | 205° |
| 2026-04-22 04:33 | 36.33070 | -79.15987 | 5157 ft | 226 kts | 205° |
| 2026-04-22 04:33 | 36.31598 | -79.16654 | 5031 ft | 225 kts | 206° |
| 2026-04-22 04:33 | 36.30139 | -79.17320 | 4904 ft | 224 kts | 206° |
| 2026-04-22 04:33 | 36.28703 | -79.18028 | 4772 ft | 220 kts | 211° |
| 2026-04-22 04:34 | 36.27385 | -79.18955 | 4645 ft | 217 kts | 216° |
| 2026-04-22 04:34 | 36.26100 | -79.19940 | 4518 ft | 217 kts | 216° |
| 2026-04-22 04:34 | 36.24826 | -79.20937 | 4380 ft | 217 kts | 216° |
| 2026-04-22 04:34 | 36.23556 | -79.21947 | 4256 ft | 217 kts | 217° |
| 2026-04-22 04:35 | 36.22291 | -79.22963 | 4125 ft | 217 kts | 217° |
| 2026-04-22 04:35 | 36.21033 | -79.23983 | 3999 ft | 216 kts | 217° |
| 2026-04-22 04:35 | 36.19776 | -79.25008 | 3871 ft | 216 kts | 217° |
| 2026-04-22 04:35 | 36.18528 | -79.26029 | 3736 ft | 214 kts | 217° |
| 2026-04-22 04:36 | 36.17382 | -79.27154 | 3739 ft | 205 kts | 229° |
| 2026-04-22 04:36 | 36.16489 | -79.28474 | 3811 ft | 197 kts | 233° |
| 2026-04-22 04:36 | 36.15644 | -79.29822 | 3730 ft | 200 kts | 233° |
| 2026-04-22 04:36 | 36.14775 | -79.31159 | 3723 ft | 198 kts | 233° |
| 2026-04-22 04:37 | 36.13965 | -79.32487 | 3810 ft | 190 kts | 236° |
| 2026-04-22 04:37 | 36.13202 | -79.33794 | 3627 ft | 183 kts | 236° |
| 2026-04-22 04:37 | 36.12505 | -79.35037 | 3376 ft | 169 kts | 235° |
| 2026-04-22 04:37 | 36.11845 | -79.36212 | 3010 ft | 164 kts | 236° |
| 2026-04-22 04:38 | 36.11217 | -79.37302 | 2711 ft | 145 kts | 233° |
| 2026-04-22 04:38 | 36.10641 | -79.38252 | 2407 ft | 136 kts | 231° |
| 2026-04-22 04:38 | 36.10072 | -79.39201 | 2075 ft | 138 kts | 232° |
| 2026-04-22 04:38 | 36.09511 | -79.40159 | 1991 ft | 137 kts | 231° |
| 2026-04-22 04:39 | 36.08914 | -79.41103 | 1768 ft | 144 kts | 230° |
| 2026-04-22 04:39 | 36.08329 | -79.42013 | 1598 ft | 124 kts | 230° |
| 2026-04-22 04:39 | 36.07815 | -79.42826 | 1365 ft | 119 kts | 231° |
| 2026-04-22 04:39 | 36.07332 | -79.43596 | 1218 ft | 104 kts | 231° |
| 2026-04-22 04:40 | 36.06895 | -79.44272 | 1107 ft | 99 kts | 231° |
| 2026-04-22 04:40 | 36.06466 | -79.44938 | 1013 ft | 99 kts | 230° |
| 2026-04-22 04:40 | 36.06034 | -79.45614 | 806 ft | 100 kts | 233° |
| 2026-04-22 04:40 | 36.05625 | -79.46259 | 677 ft | 93 kts | 232° |
| 2026-04-22 04:41 | 36.05254 | -79.46859 | 599 ft | 79 kts | 231° |
| 2026-04-22 04:41 | 36.04950 | -79.47335 | 609 ft | 63 kts | 232° |
| 2026-04-22 04:41 | 36.04740 | -79.47666 | 617 ft | 18 kts | 232° |
| 2026-04-22 04:41 | 36.04698 | -79.47733 | 618 ft | 12 kts | 232° |
| 2026-04-22 04:42 | 36.04645 | -79.47815 | 626 ft | 12 kts | 232° |
| 2026-04-22 04:42 | 36.04668 | -79.47875 | 615 ft | 9 kts | 347° |
| 2026-04-22 04:42 | 36.04733 | -79.47893 | 615 ft | 10 kts | 347° |
| 2026-04-22 04:42 | 36.04784 | -79.47919 | 615 ft | 7 kts | 329° |
| 2026-04-22 04:43 | 36.04836 | -79.47945 | 624 ft | 8 kts | 339° |
| 2026-04-22 04:43 | 36.04834 | -79.47961 | 616 ft | 0 kts | 142° |